»·PEaware :: N219SW KSEA-KSLE

N219SW :: KSEA-KSLE

FLIGHT INFORMATION

Flight Status: Arrived
Operator: Privately registered:
United States
More flights under this callsign
Pilot: Scott W. (15065)
Aircraft: CESSNA 208 CARAVAN
(C208)
More flights by this aircraft type
Origin: KSEA Seattle-Tacoma Intl
United States
Destination: KSLE McNary
United States
More flights between these airports :: More routes between these airports
Route: SEA V495 BTG V23 GNNET
File this flight plan on PilotEdge
Remarks:
Altitude:
(Current/Filed)
7,500ft
Speed:
(Current/Filed)
150kts
Departed: 31-May-17 04:16 PM
Arrived: 31-May-17 05:23 PM
Distance/Time
Traveled:
155nm/1:06
Distance/Time
To Go:
Arrived

Flight Plot

Page will automatically refresh every two minutes.

Flight plan parsing failed; only flown route is shown


Map Options




Map Legend


Flown Route
Filed Route
Departure Airport
Arrival Airport
Navaid (VOR, NDB)
Fix

Horizontal Profiles

Position Reports

Time Latitude Longitude Heading Altitude Ground
Speed
31-May-17 15:51 47.462554 -122.302667 0 438ft 0kts
31-May-17 15:52 47.462554 -122.302667 0 438ft 0kts
31-May-17 15:53 47.462554 -122.302667 0 438ft 0kts
31-May-17 15:54 47.462544 -122.302654 359 438ft 0kts
31-May-17 15:55 47.462543 -122.302654 359 438ft 0kts
31-May-17 15:56 47.462543 -122.302654 359 438ft 0kts
31-May-17 15:57 47.462543 -122.302654 359 438ft 0kts
31-May-17 15:58 47.462543 -122.302654 359 438ft 0kts
31-May-17 15:59 47.462543 -122.302654 359 438ft 0kts
31-May-17 16:00 47.462543 -122.302654 359 438ft 0kts
31-May-17 16:01 47.462543 -122.302654 359 438ft 0kts
31-May-17 16:02 47.462543 -122.302654 359 438ft 0kts
31-May-17 16:03 47.462543 -122.302654 359 438ft 0kts
31-May-17 16:09 47.462556 -122.302660 0 438ft 0kts
31-May-17 16:10 47.462556 -122.302660 0 438ft 0kts
31-May-17 16:11 47.462556 -122.302660 0 438ft 0kts
31-May-17 16:12 47.462556 -122.302660 0 438ft 0kts
31-May-17 16:13 47.462556 -122.302660 0 438ft 0kts
31-May-17 16:14 47.462556 -122.302660 0 438ft 0kts
31-May-17 16:15 47.462673 -122.303686 266 438ft 12kts
31-May-17 16:16 47.463702 -122.306589 274 438ft 0kts
31-May-17 16:17 47.463429 -122.307723 185 438ft 10kts
31-May-17 16:18 47.440680 -122.306546 181 861ft 108kts
31-May-17 16:19 47.405666 -122.305381 180 1544ft 134kts
31-May-17 16:20 47.367847 -122.304210 180 2243ft 137kts
31-May-17 16:21 47.329704 -122.302641 180 2933ft 138kts
31-May-17 16:22 47.291581 -122.307752 190 3561ft 142kts
31-May-17 16:23 47.251567 -122.315439 190 4057ft 148kts
31-May-17 16:24 47.210301 -122.323238 190 4552ft 151kts
31-May-17 16:25 47.168577 -122.331055 190 5048ft 152kts
31-May-17 16:26 47.126854 -122.338871 191 5543ft 151kts
31-May-17 16:27 47.085438 -122.346651 191 6036ft 150kts
31-May-17 16:28 47.044509 -122.354329 191 6527ft 148kts
31-May-17 16:29 47.003667 -122.362002 191 7020ft 147kts
31-May-17 16:30 46.963145 -122.369599 191 7488ft 149kts
31-May-17 16:31 46.919447 -122.377802 190 7507ft 165kts
31-May-17 16:32 46.877833 -122.385537 190 7507ft 168kts
31-May-17 16:33 46.833575 -122.393724 190 7507ft 168kts
31-May-17 16:34 46.787338 -122.402299 190 7508ft 168kts
31-May-17 16:35 46.740909 -122.410911 190 7508ft 169kts
31-May-17 16:36 46.694407 -122.419523 190 7510ft 168kts
31-May-17 16:37 46.648060 -122.428092 190 7514ft 168kts
31-May-17 16:38 46.602146 -122.436566 190 7518ft 168kts
31-May-17 16:39 46.555766 -122.445119 190 7522ft 168kts
31-May-17 16:40 46.509389 -122.453625 190 7521ft 168kts
31-May-17 16:41 46.463534 -122.462056 190 7519ft 166kts
31-May-17 16:42 46.417976 -122.470438 191 7517ft 164kts
31-May-17 16:43 46.373283 -122.478633 191 7516ft 162kts
31-May-17 16:44 46.328613 -122.486793 191 7516ft 161kts
31-May-17 16:45 46.284106 -122.494917 191 7516ft 161kts
31-May-17 16:46 46.239587 -122.503031 191 7516ft 161kts
31-May-17 16:47 46.195038 -122.511125 191 7516ft 161kts
31-May-17 16:48 46.150459 -122.519208 191 7516ft 161kts
31-May-17 16:49 46.105947 -122.527279 191 7516ft 161kts
31-May-17 16:50 46.061742 -122.535271 191 7515ft 161kts
31-May-17 16:51 46.016820 -122.543385 190 7511ft 164kts
31-May-17 16:52 45.971313 -122.551598 190 7507ft 166kts
31-May-17 16:53 45.925579 -122.559837 190 7503ft 168kts
31-May-17 16:54 45.880967 -122.567811 190 7502ft 168kts
31-May-17 16:55 45.835323 -122.575977 190 7504ft 168kts
31-May-17 16:56 45.789384 -122.584201 190 7506ft 167kts
31-May-17 16:57 45.743686 -122.593424 199 7509ft 165kts
31-May-17 16:58 45.699344 -122.611016 199 7507ft 165kts
31-May-17 16:59 45.655270 -122.628577 199 7507ft 165kts
31-May-17 17:00 45.611431 -122.646016 199 7507ft 164kts
31-May-17 17:01 45.570345 -122.662353 198 7509ft 165kts
31-May-17 17:02 45.530197 -122.691414 217 7509ft 163kts
31-May-17 17:03 45.492827 -122.728643 217 7509ft 164kts
31-May-17 17:04 45.455046 -122.766230 217 7358ft 172kts
31-May-17 17:05 45.414643 -122.806315 217 6866ft 180kts
31-May-17 17:06 45.373383 -122.847107 216 6367ft 181kts
31-May-17 17:07 45.331946 -122.888019 216 5866ft 181kts
31-May-17 17:08 45.291447 -122.927976 217 5508ft 173kts
31-May-17 17:09 45.252872 -122.966016 217 5436ft 170kts
31-May-17 17:10 45.215372 -123.002785 217 4927ft 160kts
31-May-17 17:11 45.179187 -123.038348 217 4427ft 158kts
31-May-17 17:12 45.146278 -123.070437 217 3900ft 133kts
31-May-17 17:13 45.120721 -123.107061 230 3406ft 137kts
31-May-17 17:14 45.090780 -123.140159 186 3057ft 139kts
31-May-17 17:15 45.092780 -123.168104 355 3351ft 136kts
31-May-17 17:16 45.130018 -123.182162 330 3622ft 142kts
31-May-17 17:17 45.135495 -123.198794 134 3130ft 177kts
31-May-17 17:18 45.101760 -123.155879 148 3154ft 164kts
31-May-17 17:19 45.069292 -123.131273 171 3054ft 161kts
31-May-17 17:20 45.024724 -123.093820 142 2663ft 164kts
31-May-17 17:21 44.986785 -123.062438 155 1720ft 151kts
31-May-17 17:22 44.954954 -123.037994 155 1258ft 122kts
31-May-17 17:23 44.929869 -123.017754 155 583ft 96kts
31-May-17 17:24 44.912489 -123.003847 156 218ft 41kts
31-May-17 17:25 44.908676 -123.005853 216 218ft 13kts

Navigation Log

Ident Type
Flight plan parsing failed, navigation log unavailable